createdAt,value
2022-07-25T00:11:45.854Z,52.4
2022-07-25T00:26:55.499Z,52.7
2022-07-25T00:42:04.899Z,52.3
2022-07-25T00:57:14.743Z,52.7
2022-07-25T01:12:24.342Z,52.7
2022-07-25T01:27:33.974Z,52.5
2022-07-25T01:42:43.238Z,52.5
2022-07-25T01:57:52.561Z,52.5
2022-07-25T02:13:01.947Z,52.4
2022-07-25T02:28:11.244Z,52.4
2022-07-25T02:43:20.478Z,52.4
2022-07-25T02:58:29.601Z,52.3
2022-07-25T03:13:40.030Z,52.3
2022-07-25T03:28:48.846Z,52.3
2022-07-25T03:43:58.178Z,52.2
2022-07-25T03:59:07.751Z,52.2
2022-07-25T04:14:17.486Z,52.2
2022-07-25T04:29:26.329Z,52.2
2022-07-25T04:44:37.460Z,52.1
2022-07-25T04:59:47.338Z,52
2022-07-25T05:14:57.106Z,51.9
2022-07-25T05:30:06.496Z,51.8
2022-07-25T05:45:15.890Z,51.6
2022-07-25T06:00:25.566Z,51.5
2022-07-25T06:15:36.105Z,51.7
2022-07-25T06:30:45.741Z,51.1
2022-07-25T06:45:55.632Z,50.8
2022-07-25T07:01:06.429Z,50.5
2022-07-25T07:16:16.865Z,50.3
2022-07-25T07:31:41.478Z,49.7
2022-07-25T07:46:53.557Z,48.8
2022-07-25T08:02:04.078Z,48.2
2022-07-25T08:17:16.911Z,47.9
2022-07-25T08:32:27.998Z,47.5
2022-07-25T08:47:37.414Z,47.3
2022-07-25T09:02:47.180Z,47
2022-07-25T09:17:56.580Z,46.9
2022-07-25T09:33:06.671Z,45.6
2022-07-25T09:48:16.918Z,45.5
2022-07-25T10:03:26.725Z,45.2
2022-07-25T10:18:37.390Z,44.9
2022-07-25T10:33:46.763Z,44.6
2022-07-25T10:48:57.034Z,44.5
2022-07-25T11:04:07.082Z,43.9
2022-07-25T11:19:16.334Z,44.2
2022-07-25T11:34:25.650Z,44.1
2022-07-25T11:49:38.297Z,43.7
2022-07-25T12:04:47.773Z,43.4
2022-07-25T12:19:56.374Z,43.7
2022-07-25T12:39:23.226Z,39.2
2022-07-25T12:54:33.481Z,42.3
2022-07-25T13:09:42.539Z,42.9
2022-07-25T13:24:51.054Z,42.9
2022-07-25T13:40:01.570Z,41.1
2022-07-25T13:55:11.936Z,40.3
2022-07-25T14:10:22.158Z,40.8
2022-07-25T14:25:30.497Z,41
2022-07-25T14:40:39.510Z,42
2022-07-25T14:55:49.782Z,39.9
2022-07-25T15:10:59.371Z,40.3
2022-07-25T15:26:08.136Z,41.5
2022-07-25T15:41:17.077Z,42.8
2022-07-25T15:56:26.917Z,44
2022-07-25T16:11:36.671Z,44.5
2022-07-25T16:26:46.055Z,44.3
2022-07-25T16:41:56.061Z,45.6
2022-07-25T16:57:04.555Z,46.1
2022-07-25T17:12:14.000Z,46
2022-07-25T17:27:24.533Z,46.6
2022-07-25T17:42:33.365Z,47.3
2022-07-25T17:57:42.629Z,47.8
2022-07-25T18:12:51.939Z,48.1
2022-07-25T18:28:01.034Z,48.4
2022-07-25T18:43:11.023Z,48.9
2022-07-25T18:58:20.892Z,49.2
2022-07-25T19:13:52.515Z,49.5
2022-07-25T19:29:02.078Z,49.6
2022-07-25T19:44:11.397Z,49.7
2022-07-25T19:59:20.490Z,49.8
2022-07-25T20:14:30.557Z,49.8
2022-07-25T20:29:39.477Z,50.1
2022-07-25T20:44:48.252Z,50.2
2022-07-25T21:00:00.208Z,50.4
2022-07-25T21:15:09.597Z,50.8
2022-07-25T21:30:18.724Z,50.6
2022-07-25T21:45:33.612Z,51.9
2022-07-25T22:00:46.526Z,50.8
2022-07-25T22:15:56.418Z,50.9
2022-07-25T22:31:05.547Z,51
2022-07-25T22:46:18.765Z,51.1
2022-07-25T23:01:28.114Z,51.2
2022-07-25T23:16:38.058Z,51.6
2022-07-25T23:31:50.816Z,51.5
2022-07-25T23:47:03.408Z,51.9
